Time;durP1;ratioP1;P1;durP2;ratioP2;P2;SDS_P1;SDS_P2;PMS_P1;PMS_P2;Temp;Humidity;BMP_temperature;BMP_pressure;BME280_temperature;BME280_humidity;BME280_pressure;Samples;Min_cycle;Max_cycle;Signal;HPM_P1;HPM_P2
2022/08/24 00:00:57;;;;;;;1.50;1.40;;;;;;;23.71;51.90;101227.88;5074306;28;20083;-71
2022/08/24 00:03:22;;;;;;;1.67;1.50;;;;;;;23.71;52.19;101235.25;5074411;28;20075;-71
2022/08/24 00:05:52;;;;;;;1.52;1.42;;;;;;;23.71;52.03;101227.06;5039802;28;20025;-71
2022/08/24 00:08:18;;;;;;;1.40;1.30;;;;;;;23.71;52.47;101216.16;5056900;28;20041;-71
2022/08/24 00:10:43;;;;;;;1.70;1.60;;;;;;;23.71;51.98;101211.53;5074299;28;20028;-71
2022/08/24 00:13:09;;;;;;;1.70;1.60;;;;;;;23.71;52.31;101197.88;5074801;28;20048;-71
2022/08/24 00:15:34;;;;;;;1.50;1.40;;;;;;;23.72;52.17;101202.25;5076735;28;20047;-71
2022/08/24 00:18:00;;;;;;;1.58;1.48;;;;;;;23.69;52.27;101191.84;5077213;28;20024;-71
2022/08/24 00:20:25;;;;;;;2.42;1.40;;;;;;;23.70;52.41;101204.44;5077380;28;20100;-71
2022/08/24 00:22:51;;;;;;;1.25;1.15;;;;;;;23.71;52.76;101206.06;5077909;28;20478;-71
2022/08/24 00:25:18;;;;;;;1.40;1.30;;;;;;;23.71;52.43;101202.50;5078605;28;20036;-71
2022/08/24 00:27:44;;;;;;;1.40;1.30;;;;;;;23.69;52.90;101202.75;5077336;28;20478;-71
2022/08/24 00:30:14;;;;;;;1.70;1.60;;;;;;;23.69;52.81;101200.03;5080093;28;20055;-71
2022/08/24 00:32:40;;;;;;;1.60;1.50;;;;;;;23.70;52.56;101189.94;5074111;28;20036;-71
2022/08/24 00:35:06;;;;;;;1.50;1.40;;;;;;;23.70;52.40;101192.66;5054349;28;20057;-71
2022/08/24 00:37:32;;;;;;;1.60;1.50;;;;;;;23.70;52.60;101184.47;5053249;28;20017;-71
2022/08/24 00:39:58;;;;;;;1.50;1.40;;;;;;;23.69;52.81;101186.41;5053570;28;20036;-71
2022/08/24 00:42:23;;;;;;;1.50;1.40;;;;;;;23.70;52.75;101176.28;5053245;28;20029;-71
2022/08/24 00:44:49;;;;;;;1.60;1.50;;;;;;;23.69;52.61;101186.41;5053152;28;20021;-71
2022/08/24 00:47:23;;;;;;;1.60;1.50;;;;;;;23.69;52.73;101174.66;5053411;28;20036;-71
2022/08/24 00:50:04;;;;;;;1.95;1.80;;;;;;;23.71;53.45;101183.41;5053379;28;20383;-71
2022/08/24 00:52:32;;;;;;;1.70;1.60;;;;;;;23.70;53.12;101179.03;5035536;28;20028;-71
2022/08/24 00:55:09;;;;;;;1.40;1.30;;;;;;;23.67;52.74;101182.28;5053528;28;20066;-71
2022/08/24 00:57:38;;;;;;;1.60;1.50;;;;;;;23.68;53.00;101176.56;5036639;28;20497;-71
2022/08/24 01:00:16;;;;;;;1.50;1.40;;;;;;;23.68;53.26;101175.72;5019143;28;20060;-71
2022/08/24 01:02:44;;;;;;;1.55;1.45;;;;;;;23.68;52.94;101176.56;5053278;28;20070;-71
2022/08/24 01:05:10;;;;;;;1.60;1.50;;;;;;;23.68;53.36;101173.84;5053256;28;20054;-71
2022/08/24 01:07:36;;;;;;;1.90;1.80;;;;;;;23.68;53.24;101179.31;5053221;28;20028;-71
2022/08/24 01:10:07;;;;;;;1.50;1.40;;;;;;;23.67;52.95;101176.84;5053175;28;20025;-71
2022/08/24 01:12:33;;;;;;;1.70;1.60;;;;;;;23.67;53.65;101176.84;5053049;28;20033;-71
2022/08/24 01:14:59;;;;;;;1.75;1.65;;;;;;;23.67;53.54;101176.84;5053016;28;20025;-71
2022/08/24 01:20:09;;;;;;;1.65;1.55;;;;;;;23.68;53.22;101162.94;5053069;28;20109;-71
2022/08/24 01:23:12;;;;;;;1.70;1.60;;;;;;;23.70;53.66;101160.75;5035340;28;20022;-71
2022/08/24 01:25:38;;;;;;;1.95;1.85;;;;;;;23.69;53.19;101163.75;5052817;28;20091;-71
2022/08/24 01:28:09;;;;;;;1.60;1.50;;;;;;;23.67;53.67;101164.00;5052804;28;20030;-71
2022/08/24 01:30:35;;;;;;;1.80;1.70;;;;;;;23.67;53.65;101160.47;5035450;28;20021;-71
2022/08/24 01:33:02;;;;;;;2.33;1.70;;;;;;;23.66;53.42;101162.34;5054610;28;20021;-71
2022/08/24 01:35:28;;;;;;;1.83;1.73;;;;;;;23.66;53.44;101162.34;5077073;28;20029;-71
2022/08/24 01:37:54;;;;;;;1.80;1.70;;;;;;;23.62;53.66;101151.13;5076983;28;20075;-71
2022/08/24 01:40:20;;;;;;;2.00;1.60;;;;;;;23.66;53.43;101156.06;5077818;28;20103;-71
2022/08/24 01:42:49;;;;;;;1.60;1.50;;;;;;;23.65;53.32;101151.72;5076837;28;20485;-71
2022/08/24 01:45:15;;;;;;;1.80;1.70;;;;;;;23.65;53.62;101149.78;5058831;28;20485;-71
2022/08/24 01:47:41;;;;;;;1.63;1.52;;;;;;;23.65;53.49;101149.78;5076299;28;20024;-71
2022/08/24 01:50:07;;;;;;;1.90;1.80;;;;;;;23.65;53.88;101144.34;5056734;28;20025;-71
2022/08/24 01:52:32;;;;;;;1.70;1.60;;;;;;;23.65;53.22;101149.78;5056628;28;20029;-71
2022/08/24 01:54:57;;;;;;;1.80;1.70;;;;;;;23.63;53.45;101143.78;5057498;28;20022;-71
2022/08/24 01:57:24;;;;;;;1.77;1.67;;;;;;;23.62;53.52;101142.13;5056560;28;20033;-71
2022/08/24 01:59:50;;;;;;;1.80;1.70;;;;;;;23.64;53.49;101145.41;5056450;28;20109;-71
2022/08/24 02:02:24;;;;;;;1.88;1.77;;;;;;;23.62;53.54;101133.94;5056138;28;20163;-71
2022/08/24 02:04:50;;;;;;;1.80;1.70;;;;;;;23.64;53.71;101134.50;5039737;28;20374;-71
2022/08/24 02:07:15;;;;;;;1.85;1.75;;;;;;;23.64;53.65;101134.50;5056061;28;20025;-71
2022/08/24 02:09:41;;;;;;;2.00;1.85;;;;;;;23.62;53.78;101140.22;5056339;28;20028;-71
2022/08/24 02:12:06;;;;;;;2.22;1.70;;;;;;;23.64;53.46;101137.22;5056348;28;20032;-71
2022/08/24 02:14:34;;;;;;;1.92;1.73;;;;;;;23.61;53.81;101133.13;5056183;28;20025;-71
2022/08/24 02:16:59;;;;;;;1.70;1.60;;;;;;;23.60;53.90;101114.28;5056034;28;20021;-71
2022/08/24 02:19:26;;;;;;;1.73;1.63;;;;;;;23.61;53.74;101113.19;5055941;28;20021;-71
2022/08/24 02:21:51;;;;;;;1.67;1.58;;;;;;;23.61;53.80;101107.72;5055915;28;20430;-71
2022/08/24 02:24:17;;;;;;;1.90;1.80;;;;;;;23.61;53.74;101115.91;5056088;28;20028;-71
2022/08/24 02:26:42;;;;;;;1.77;1.67;;;;;;;23.61;53.48;101108.56;5055818;28;20028;-71
2022/08/24 02:29:07;;;;;;;1.90;1.77;;;;;;;23.60;53.71;101114.28;5055976;28;20025;-71
2022/08/24 02:31:33;;;;;;;1.77;1.67;;;;;;;23.60;54.03;101117.00;5055616;28;20017;-71
2022/08/24 02:33:59;;;;;;;1.98;1.83;;;;;;;23.61;53.91;101107.72;5037782;28;20049;-71
2022/08/24 02:36:24;;;;;;;1.70;1.60;;;;;;;23.61;54.30;101102.25;5055357;28;20104;-71
2022/08/24 02:38:50;;;;;;;1.80;1.70;;;;;;;23.61;53.87;101102.25;5055729;28;20033;-71
2022/08/24 02:41:15;;;;;;;2.00;1.90;;;;;;;23.60;54.03;101103.34;5055315;28;20029;-71
2022/08/24 02:43:41;;;;;;;2.20;2.00;;;;;;;23.60;53.70;101106.09;5055359;28;20104;-71
2022/08/24 02:46:06;;;;;;;1.63;1.52;;;;;;;23.60;54.17;101093.25;5054278;28;20025;-71
2022/08/24 02:48:32;;;;;;;1.70;1.60;;;;;;;23.59;54.12;101094.34;5060950;28;20044;-71
2022/08/24 02:50:57;;;;;;;3.38;1.80;;;;;;;23.60;54.13;101092.44;5057477;28;20037;-71
2022/08/24 02:53:23;;;;;;;1.50;1.40;;;;;;;23.60;54.13;101100.63;5075100;28;20029;-71
2022/08/24 02:55:48;;;;;;;1.55;1.45;;;;;;;23.59;54.02;101102.53;5075475;28;20023;-71
2022/08/24 02:58:15;;;;;;;2.10;2.00;;;;;;;23.59;54.30;101099.81;5075540;28;20049;-71
2022/08/24 03:00:41;;;;;;;1.80;1.70;;;;;;;23.58;54.07;101102.81;5075022;28;20025;-71
2022/08/24 03:03:07;;;;;;;1.83;1.73;;;;;;;23.59;54.30;101110.72;5074868;28;20024;-71
2022/08/24 03:05:33;;;;;;;2.10;1.90;;;;;;;23.61;53.84;101111.28;5075340;28;20119;-71
2022/08/24 03:07:58;;;;;;;1.73;1.63;;;;;;;23.64;54.01;101112.66;5075709;28;20451;-71
2022/08/24 03:10:24;;;;;;;1.63;1.52;;;;;;;23.66;54.18;101110.50;5074843;28;20038;-71
2022/08/24 03:12:50;;;;;;;1.83;1.73;;;;;;;23.67;54.38;101112.16;5075028;28;20017;-71
2022/08/24 03:15:15;;;;;;;1.70;1.60;;;;;;;23.69;54.06;101107.25;5075107;28;20020;-71
2022/08/24 03:17:41;;;;;;;1.40;1.30;;;;;;;23.70;54.01;101106.19;5074657;28;20459;-71
2022/08/24 03:20:09;;;;;;;1.50;1.40;;;;;;;23.70;53.98;101099.88;5074558;28;20025;-71
2022/08/24 03:22:35;;;;;;;1.65;1.55;;;;;;;23.68;54.22;101097.44;5075033;28;20048;-71
2022/08/24 03:25:01;;;;;;;1.77;1.67;;;;;;;23.73;54.27;101100.22;5074510;28;20025;-71
2022/08/24 03:27:26;;;;;;;1.70;1.60;;;;;;;23.75;54.04;101103.50;5074468;28;20028;-71
2022/08/24 03:29:52;;;;;;;2.10;1.90;;;;;;;23.78;54.08;101099.44;5074656;28;20024;-71
2022/08/24 03:32:17;;;;;;;1.63;1.52;;;;;;;23.79;53.92;101098.34;5074452;28;20114;-71
2022/08/24 03:34:43;;;;;;;1.50;1.40;;;;;;;23.80;54.02;101102.72;5074095;28;20037;-71
2022/08/24 03:37:08;;;;;;;1.67;1.58;;;;;;;23.81;53.95;101102.50;5074191;28;20086;-71
2022/08/24 03:39:34;;;;;;;1.50;1.40;;;;;;;23.84;53.71;101111.28;5074646;28;20108;-71
2022/08/24 03:42:00;;;;;;;2.08;1.80;;;;;;;23.87;53.42;101105.28;5074428;28;20493;-71
2022/08/24 03:44:25;;;;;;;2.65;1.60;;;;;;;23.87;53.69;101105.28;5074551;28;20127;-71
2022/08/24 03:46:51;;;;;;;1.83;1.70;;;;;;;23.90;53.46;101108.31;5074427;28;20506;-71
2022/08/24 03:49:17;;;;;;;1.77;1.67;;;;;;;23.90;53.51;101102.84;5073964;28;20031;-71
2022/08/24 03:51:43;;;;;;;1.70;1.60;;;;;;;23.90;53.61;101110.22;5073963;28;20064;-71
2022/08/24 03:54:08;;;;;;;1.77;1.67;;;;;;;23.92;53.16;101113.50;5074234;28;20115;-71
2022/08/24 03:56:34;;;;;;;1.90;1.60;;;;;;;23.93;53.38;101109.69;5073678;28;20147;-71
2022/08/24 03:58:59;;;;;;;2.83;1.70;;;;;;;23.95;53.15;101118.44;5073938;28;20082;-71
2022/08/24 04:01:25;;;;;;;1.88;1.77;;;;;;;23.98;53.03;101115.22;5074268;28;20032;-71
2022/08/24 04:03:52;;;;;;;1.67;1.58;;;;;;;23.99;52.65;101114.09;5073798;28;20383;-71
2022/08/24 04:06:18;;;;;;;1.95;1.67;;;;;;;23.98;53.18;101116.03;5073880;28;20059;-71
2022/08/24 04:08:44;;;;;;;1.60;1.50;;;;;;;24.00;52.86;101126.69;5073925;28;20052;-71
2022/08/24 04:11:18;;;;;;;1.70;1.60;;;;;;;23.99;52.98;101119.56;5074261;28;20028;-71
2022/08/24 04:13:44;;;;;;;2.00;1.80;;;;;;;24.00;53.20;101110.31;5075276;28;20332;-71
2022/08/24 04:16:11;;;;;;;1.75;1.65;;;;;;;24.03;53.37;101114.44;5075409;28;20530;-71
2022/08/24 04:18:37;;;;;;;1.80;1.70;;;;;;;24.03;52.99;101109.78;5075562;28;20020;-72
2022/08/24 04:21:03;;;;;;;1.70;1.60;;;;;;;24.06;53.43;101114.75;5075379;28;20435;-72
2022/08/24 04:23:29;;;;;;;3.25;2.17;;;;;;;24.06;53.33;101112.00;5040808;28;20043;-71
2022/08/24 04:25:54;;;;;;;2.00;1.90;;;;;;;24.07;53.56;101121.81;5075492;28;20024;-71
2022/08/24 04:28:21;;;;;;;2.03;1.75;;;;;;;24.09;53.20;101125.13;5075306;28;20433;-71
2022/08/24 04:30:50;;;;;;;2.00;1.80;;;;;;;24.10;52.91;101121.31;5075967;28;20036;-72
2022/08/24 04:33:17;;;;;;;2.47;1.75;;;;;;;24.09;52.84;101122.38;5074923;28;20044;-71
2022/08/24 04:35:45;;;;;;;2.17;1.92;;;;;;;24.10;52.91;101126.78;5075313;28;20159;-71
2022/08/24 04:38:11;;;;;;;1.92;1.83;;;;;;;24.10;53.17;101142.34;5075092;28;20128;-71
2022/08/24 04:40:41;;;;;;;2.03;1.75;;;;;;;24.10;52.67;101140.44;5074713;28;20055;-72
2022/08/24 04:43:07;;;;;;;1.92;1.60;;;;;;;24.15;53.30;101139.66;5039893;28;20032;-72
2022/08/24 04:45:33;;;;;;;1.60;1.45;;;;;;;24.16;52.90;101135.81;5056616;28;20434;-71
2022/08/24 04:47:59;;;;;;;1.85;1.75;;;;;;;24.17;52.73;101129.28;5074992;28;20047;-71
2022/08/24 04:50:24;;;;;;;1.85;1.73;;;;;;;24.13;53.01;101129.00;5075280;28;20403;-71
2022/08/24 04:52:50;;;;;;;2.10;1.90;;;;;;;24.15;52.99;101126.81;5075076;28;20025;-72
2022/08/24 04:55:16;;;;;;;2.38;1.80;;;;;;;24.17;52.94;101126.56;5074454;28;20032;-72
2022/08/24 04:57:41;;;;;;;1.60;1.50;;;;;;;24.11;52.76;101116.66;5076981;28;20031;-72
2022/08/24 05:00:09;;;;;;;1.50;1.40;;;;;;;24.11;52.74;101111.22;5076526;28;20035;-72
2022/08/24 05:02:36;;;;;;;1.70;1.60;;;;;;;24.13;52.81;101106.34;5077623;28;20032;-72
2022/08/24 05:05:01;;;;;;;1.90;1.70;;;;;;;24.16;52.52;101109.34;5079351;28;20024;-72
2022/08/24 05:07:28;;;;;;;2.17;1.67;;;;;;;24.10;53.04;101104.13;5086770;28;20029;-72
2022/08/24 05:09:54;;;;;;;1.92;1.80;;;;;;;24.16;52.36;101098.44;5087713;28;20028;-71
2022/08/24 05:12:19;;;;;;;1.90;1.80;;;;;;;24.15;53.20;101106.88;5089748;28;20055;-72
2022/08/24 05:14:45;;;;;;;1.67;1.58;;;;;;;24.14;53.01;101102.50;5092215;28;20032;-72
2022/08/24 05:17:10;;;;;;;1.60;1.48;;;;;;;24.16;53.20;101103.91;5087993;28;20525;-72
2022/08/24 05:19:36;;;;;;;2.58;1.52;;;;;;;24.15;53.41;101101.44;5079072;28;20378;-71
2022/08/24 05:22:02;;;;;;;2.50;1.77;;;;;;;24.22;53.22;101112.13;5057042;28;20025;-71
2022/08/24 05:24:28;;;;;;;1.65;1.55;;;;;;;24.19;53.24;101110.72;5075636;28;20036;-71
2022/08/24 05:26:54;;;;;;;1.83;1.40;;;;;;;24.22;53.32;101110.22;5076070;28;20051;-71
2022/08/24 05:29:20;;;;;;;2.67;1.65;;;;;;;24.19;53.27;101108.00;5075110;28;20455;-71
2022/08/24 05:31:46;;;;;;;2.42;1.58;;;;;;;24.21;53.22;101100.38;5076177;28;20090;-71
2022/08/24 05:34:11;;;;;;;2.33;1.60;;;;;;;24.21;52.90;101103.09;5080198;28;20049;-72
2022/08/24 05:36:37;;;;;;;1.95;1.70;;;;;;;24.27;53.13;101099.34;5080819;28;20031;-72
2022/08/24 05:39:10;;;;;;;2.35;1.67;;;;;;;24.16;53.50;101105.78;5078974;28;20070;-72
2022/08/24 05:41:36;;;;;;;2.22;1.60;;;;;;;24.24;53.28;101104.50;5078030;28;20084;-72
2022/08/24 05:44:01;;;;;;;1.80;1.70;;;;;;;24.24;53.10;101115.41;5076489;28;20398;-72
2022/08/24 05:46:27;;;;;;;2.00;1.80;;;;;;;24.17;53.50;101107.44;5075452;28;20400;-72
2022/08/24 05:48:53;;;;;;;1.65;1.55;;;;;;;24.23;53.20;101098.19;5075352;28;20024;-72
2022/08/24 05:51:19;;;;;;;2.60;1.80;;;;;;;24.21;53.52;101099.53;5074444;28;20111;-72
2022/08/24 05:53:45;;;;;;;2.08;1.90;;;;;;;24.23;53.67;101091.91;5074305;28;20087;-72
2022/08/24 05:56:12;;;;;;;2.65;1.98;;;;;;;24.24;53.56;101088.09;5074779;28;20028;-72
2022/08/24 05:58:38;;;;;;;1.95;1.60;;;;;;;24.21;53.61;101091.34;5074405;28;20390;-72
2022/08/24 06:01:14;;;;;;;1.80;1.70;;;;;;;24.31;53.02;101080.50;5074680;28;20028;-73
2022/08/24 06:03:40;;;;;;;2.17;1.70;;;;;;;24.31;52.84;101083.25;5075546;28;20028;-72
2022/08/24 06:06:07;;;;;;;3.50;2.03;;;;;;;24.31;53.33;101083.25;5073111;28;20028;-71
2022/08/24 06:08:44;;;;;;;2.28;1.85;;;;;;;24.32;53.28;101079.44;5072821;28;20058;-72
2022/08/24 06:11:11;;;;;;;3.92;1.75;;;;;;;24.35;52.96;101078.88;5073713;28;20055;-73
2022/08/24 06:13:36;;;;;;;2.20;1.95;;;;;;;24.36;52.94;101075.88;5076464;28;20020;-74
2022/08/24 06:16:14;;;;;;;3.15;2.05;;;;;;;24.34;52.74;101072.59;5078687;28;20418;-73
2022/08/24 06:18:40;;;;;;;3.03;2.13;;;;;;;24.36;53.16;101072.34;5040637;28;20021;-74
2022/08/24 06:21:08;;;;;;;2.40;1.88;;;;;;;24.38;53.08;101070.16;5077392;28;20088;-73
2022/08/24 06:23:34;;;;;;;3.53;1.83;;;;;;;24.39;53.09;101069.09;5077832;28;20115;-73
2022/08/24 06:28:43;;;;;;;;;;;;;;;24.49;52.96;101062.84;5061905;28;20112;-71
2022/08/24 06:31:09;;;;;;;1.98;1.77;;;;;;;24.44;52.52;101069.13;5080565;28;20338;-73
2022/08/24 06:33:34;;;;;;;2.50;2.10;;;;;;;24.41;52.68;101071.56;5071735;28;20045;-73
2022/08/24 06:36:00;;;;;;;3.15;2.65;;;;;;;24.40;52.49;101070.72;5021051;28;20470;-72
2022/08/24 06:38:25;;;;;;;2.95;2.47;;;;;;;24.41;52.67;101066.91;5055849;28;20025;-72
2022/08/24 06:40:51;;;;;;;4.40;2.20;;;;;;;24.38;53.16;101064.69;5055756;28;20380;-71
2022/08/24 06:43:16;;;;;;;2.65;2.42;;;;;;;24.38;53.26;101068.25;5055816;28;20108;-71
2022/08/24 06:45:42;;;;;;;3.15;2.50;;;;;;;24.34;52.85;101067.16;5055171;28;20103;-72
2022/08/24 06:48:08;;;;;;;4.13;2.70;;;;;;;24.43;52.55;101059.28;5055890;28;20053;-72
2022/08/24 06:50:34;;;;;;;3.58;2.20;;;;;;;24.44;52.80;101066.41;5050927;28;20058;-72
2022/08/24 06:53:00;;;;;;;3.65;2.53;;;;;;;24.40;52.97;101058.97;5055389;28;20049;-71
2022/08/24 06:55:26;;;;;;;3.25;2.35;;;;;;;24.41;53.03;101066.09;5037902;28;20072;-70
2022/08/24 06:57:51;;;;;;;2.80;2.25;;;;;;;24.28;53.43;101059.16;5038641;28;20371;-71
2022/08/24 07:00:17;;;;;;;3.75;2.60;;;;;;;24.27;53.14;101066.56;5037619;28;20031;-71
2022/08/24 07:02:43;;;;;;;5.50;2.38;;;;;;;24.25;53.44;101062.44;5055562;28;20016;-72
2022/08/24 07:05:08;;;;;;;4.05;2.67;;;;;;;24.36;53.28;101064.16;5039842;28;20033;-72
2022/08/24 07:07:37;;;;;;;2.88;2.10;;;;;;;24.40;52.84;101062.53;5058206;28;20372;-71
2022/08/24 07:10:04;;;;;;;4.28;2.72;;;;;;;24.34;53.37;101066.31;5055131;28;20043;-72
2022/08/24 07:12:29;;;;;;;3.50;2.78;;;;;;;24.48;53.01;101062.03;5055186;28;20021;-72
2022/08/24 07:14:55;;;;;;;3.22;2.83;;;;;;;24.37;53.13;101058.44;5054975;28;20028;-74
2022/08/24 07:17:21;;;;;;;3.95;2.95;;;;;;;24.52;52.66;101051.41;5054947;28;20029;-73
2022/08/24 07:19:47;;;;;;;6.22;3.08;;;;;;;24.52;53.28;101054.94;5054713;28;20037;-72
2022/08/24 07:22:13;;;;;;;4.18;3.33;;;;;;;24.51;53.08;101050.59;5055132;28;20079;-72
2022/08/24 07:24:39;;;;;;;4.88;3.47;;;;;;;24.57;52.67;101053.38;5054891;28;20112;-72
2022/08/24 07:27:05;;;;;;;3.85;3.03;;;;;;;24.53;52.82;101053.06;5054828;28;20048;-73
2022/08/24 07:29:31;;;;;;;5.25;3.45;;;;;;;24.52;52.76;101054.94;5055088;28;20032;-72
2022/08/24 07:31:56;;;;;;;3.85;2.90;;;;;;;24.52;52.76;101045.94;5054015;28;20486;-73
2022/08/24 07:34:22;;;;;;;4.13;2.80;;;;;;;24.53;52.19;101042.13;5049547;28;20036;-72
2022/08/24 07:36:49;;;;;;;3.30;2.90;;;;;;;24.58;52.43;101049.53;5075761;28;20367;-72
2022/08/24 07:39:15;;;;;;;4.88;3.20;;;;;;;24.57;52.35;101053.38;5075196;28;20083;-73
2022/08/24 07:41:41;;;;;;;3.28;2.97;;;;;;;24.57;52.22;101053.38;5074927;28;20506;-72
2022/08/24 07:44:07;;;;;;;3.58;2.92;;;;;;;24.56;52.28;101049.81;5075505;28;20412;-74
2022/08/24 07:46:33;;;;;;;3.38;3.08;;;;;;;24.58;52.02;101055.00;5074533;28;20024;-71
2022/08/24 07:48:58;;;;;;;4.13;3.40;;;;;;;24.53;52.51;101051.13;5074549;28;20471;-73
2022/08/24 07:51:24;;;;;;;6.45;4.03;;;;;;;24.57;52.35;101050.63;5074455;28;20025;-72
2022/08/24 07:53:50;;;;;;;7.15;4.60;;;;;;;24.57;52.28;101054.19;5074942;28;20422;-73
2022/08/24 07:56:15;;;;;;;7.18;4.57;;;;;;;24.60;52.29;101052.84;5076531;28;20123;-78
2022/08/24 07:58:41;;;;;;;9.30;4.90;;;;;;;24.64;52.32;101043.84;5079807;28;20044;-78
2022/08/24 08:01:08;;;;;;;8.20;5.20;;;;;;;24.59;52.27;101045.72;5049690;28;20021;-78
2022/08/24 08:03:34;;;;;;;6.78;4.55;;;;;;;24.60;52.55;101052.84;5078381;28;20111;-78
2022/08/24 08:06:01;;;;;;;7.70;5.50;;;;;;;24.57;52.33;101062.38;5076378;28;20024;-78
2022/08/24 08:08:28;;;;;;;9.52;5.95;;;;;;;24.61;51.92;101054.47;5075965;28;20036;-78
2022/08/24 08:10:53;;;;;;;13.25;7.43;;;;;;;24.58;52.33;101058.56;5074877;28;20064;-77
2022/08/24 08:13:19;;;;;;;11.13;7.22;;;;;;;24.63;52.07;101052.28;5075997;28;20040;-77
2022/08/24 08:15:44;;;;;;;12.18;6.60;;;;;;;24.59;52.21;101059.38;5075498;28;20059;-78
2022/08/24 08:18:10;;;;;;;10.82;6.40;;;;;;;24.58;52.30;101055.00;5075508;28;20459;-78
2022/08/24 08:20:36;;;;;;;11.35;6.60;;;;;;;24.68;51.80;101060.53;5057135;28;20045;-77
2022/08/24 08:25:51;;;;;;;12.10;7.05;;;;;;;24.68;51.91;101055.91;5076095;28;20031;-78
2022/08/24 08:28:17;;;;;;;11.10;6.80;;;;;;;24.64;51.92;101059.41;5075237;28;20029;-78
2022/08/24 08:30:46;;;;;;;8.90;5.45;;;;;;;24.69;51.96;101053.97;5056904;28;20391;-78
2022/08/24 08:33:12;;;;;;;7.53;4.93;;;;;;;24.69;51.80;101057.53;5059339;28;20235;-77
2022/08/24 08:35:38;;;;;;;8.88;5.18;;;;;;;24.69;52.13;101065.72;5076645;28;20107;-77
2022/08/24 08:38:03;;;;;;;5.78;4.40;;;;;;;24.67;52.17;101064.34;5073742;28;20020;-78
2022/08/24 08:40:44;;;;;;;6.60;4.65;;;;;;;24.69;52.34;101062.19;5073769;28;20029;-78
2022/08/24 08:43:23;;;;;;;6.40;4.97;;;;;;;24.61;52.32;101060.78;5073409;28;20039;-78
2022/08/24 08:46:13;;;;;;;7.95;5.60;;;;;;;24.64;52.66;101059.41;5040060;28;20047;-77
2022/08/24 08:48:54;;;;;;;13.77;7.20;;;;;;;24.68;52.36;101057.78;5074002;28;20430;-78
2022/08/24 08:51:38;;;;;;;14.52;7.55;;;;;;;24.60;52.73;101055.59;5074407;28;20112;-78
2022/08/24 08:54:13;;;;;;;10.95;6.65;;;;;;;24.58;52.82;101055.00;5074246;28;20032;-77
2022/08/24 08:56:44;;;;;;;10.18;6.05;;;;;;;24.57;52.97;101050.63;5073829;28;20040;-77
2022/08/24 08:59:42;;;;;;;7.45;4.50;;;;;;;24.63;52.89;101052.28;5074095;28;20020;-76
2022/08/24 09:02:40;;;;;;;9.90;5.20;;;;;;;24.67;52.92;101053.44;5062786;28;20046;-77
2022/08/24 09:05:25;;;;;;;7.28;4.18;;;;;;;24.67;53.17;101047.97;5058313;28;20482;-79
2022/08/24 09:08:10;;;;;;;6.38;4.05;;;;;;;24.67;53.15;101043.31;5073769;28;20037;-77
2022/08/24 09:11:09;;;;;;;3.67;3.30;;;;;;;24.64;53.13;101052.03;5056958;28;20025;-77
2022/08/24 09:13:59;;;;;;;7.13;3.63;;;;;;;24.58;53.35;101044.91;5073617;28;20024;-77
2022/08/24 09:16:30;;;;;;;9.68;4.15;;;;;;;24.66;53.14;101046.31;5056299;28;20024;-77
2022/08/24 09:19:24;;;;;;;6.68;4.10;;;;;;;24.64;53.23;101043.84;5074052;28;20328;-77
2022/08/24 09:21:59;;;;;;;;;;;;;;;24.74;53.13;101049.34;5060714;28;20430;-77
2022/08/24 09:24:25;;;;;;;;;;;;;;;24.82;53.03;101048.03;5074553;28;19912;-77
2022/08/24 09:27:13;;;;;;;10.55;6.53;;;;;;;24.72;53.01;101040.59;5074124;28;19912;-77
2022/08/24 09:29:46;;;;;;;7.75;4.88;;;;;;;24.70;53.36;101044.69;5074673;28;20117;-77
2022/08/24 09:32:29;;;;;;;8.75;5.70;;;;;;;24.62;53.65;101040.56;5057512;28;20035;-79
2022/08/24 09:35:02;;;;;;;9.63;6.20;;;;;;;24.70;53.18;101042.78;5057301;28;20127;-77
2022/08/24 09:37:55;;;;;;;8.27;4.75;;;;;;;24.71;53.54;101043.59;5057413;28;20031;-77
2022/08/24 09:40:24;;;;;;;7.13;4.53;;;;;;;24.67;53.64;101045.22;5041249;28;20430;-75
2022/08/24 09:43:29;;;;;;;8.02;5.35;;;;;;;24.71;53.60;101043.59;5076898;28;20028;-76
2022/08/24 09:46:26;;;;;;;17.48;8.13;;;;;;;24.71;53.53;101038.94;5066506;28;20043;-75
2022/08/24 09:49:06;;;;;;;14.32;8.15;;;;;;;24.66;53.76;101041.66;5076144;28;20111;-76
2022/08/24 09:52:08;;;;;;;9.68;5.72;;;;;;;24.72;53.57;101047.97;5076022;28;20048;-75
2022/08/24 09:54:50;;;;;;;6.78;4.32;;;;;;;24.75;53.23;101039.25;5079351;28;20092;-77
2022/08/24 09:57:39;;;;;;;9.27;5.03;;;;;;;24.72;53.40;101039.78;5066068;28;20033;-76
2022/08/24 10:00:20;;;;;;;14.02;7.68;;;;;;;24.70;53.37;101044.69;5096423;28;20174;-78
2022/08/24 10:03:15;;;;;;;11.75;6.85;;;;;;;24.77;53.52;101044.44;5096064;28;20029;-75
2022/08/24 10:05:53;;;;;;;10.23;6.43;;;;;;;24.84;53.34;101043.13;5037756;28;20057;-78
2022/08/24 10:08:32;;;;;;;15.77;7.13;;;;;;;24.79;53.66;101055.94;5037173;28;20041;-77
2022/08/24 10:11:29;;;;;;;14.40;7.25;;;;;;;24.80;53.29;101047.47;5021617;28;20045;-78
2022/08/24 10:14:04;;;;;;;13.80;7.45;;;;;;;24.86;53.20;101043.66;5036613;28;20493;-77
2022/08/24 10:17:01;;;;;;;13.07;7.43;;;;;;;24.86;53.14;101040.13;5019341;28;20181;-77
2022/08/24 10:20:03;;;;;;;18.40;9.38;;;;;;;24.81;53.34;101037.38;5020226;28;20034;-78
2022/08/24 10:22:58;;;;;;;13.80;7.82;;;;;;;24.81;53.44;101038.16;5037638;28;20104;-75
2022/08/24 10:25:38;;;;;;;12.55;6.38;;;;;;;24.84;53.29;101048.59;5005034;28;20653;-76
2022/08/24 10:28:27;;;;;;;9.63;5.32;;;;;;;24.83;53.30;101046.94;5002555;28;20105;-76
2022/08/24 10:31:03;;;;;;;10.45;5.28;;;;;;;24.92;53.33;101042.59;5016360;28;20571;-76
2022/08/24 10:34:19;;;;;;;10.05;5.22;;;;;;;24.92;53.03;101045.34;5020145;28;20057;-76
2022/08/24 10:36:59;;;;;;;8.43;4.00;;;;;;;24.85;53.21;101033.84;4997399;28;20081;-73
2022/08/24 10:39:44;;;;;;;7.00;4.13;;;;;;;24.90;53.26;101028.34;4988037;28;20146;-71
2022/08/24 10:45:40;;;;;;;4.75;3.85;;;;;;;24.98;53.23;101040.69;5013492;28;20116;-72
2022/08/24 10:48:27;;;;;;;6.65;3.80;;;;;;;24.92;53.37;101037.13;5017429;28;20033;-73
2022/08/24 10:51:29;;;;;;;5.00;3.70;;;;;;;24.91;53.29;101051.06;5014309;28;20065;-72
2022/08/24 10:53:55;;;;;;;5.18;3.60;;;;;;;24.97;53.12;101035.50;4939533;29;20163;-72
2022/08/24 10:56:51;;;;;;;5.93;3.70;;;;;;;24.93;53.56;101038.75;4956396;28;20035;-72
2022/08/24 10:59:24;;;;;;;8.45;3.40;;;;;;;25.00;53.16;101046.72;4955695;29;20406;-73
2022/08/24 11:02:11;;;;;;;6.05;3.90;;;;;;;24.99;53.07;101038.78;4956640;28;20593;-74
2022/08/24 11:04:38;;;;;;;5.93;3.90;;;;;;;24.99;53.24;101044.25;4956209;29;20040;-73
2022/08/24 11:07:07;;;;;;;4.15;3.35;;;;;;;24.97;53.36;101040.97;4961669;28;20404;-73
2022/08/24 11:09:59;;;;;;;4.93;3.72;;;;;;;25.02;53.09;101038.25;4923535;29;20545;-74
2022/08/24 11:12:37;;;;;;;3.60;3.20;;;;;;;25.02;52.89;101039.06;4968950;28;20035;-74
2022/08/24 11:15:25;;;;;;;4.10;2.83;;;;;;;25.06;52.86;101044.81;4974795;28;20030;-74
2022/08/24 11:17:57;;;;;;;3.95;2.97;;;;;;;25.16;52.56;101055.78;4994074;28;20109;-75
2022/08/24 11:20:27;;;;;;;3.33;3.00;;;;;;;25.15;52.66;101059.63;4994112;28;20033;-74
2022/08/24 11:23:03;;;;;;;4.70;2.88;;;;;;;25.21;52.46;101068.66;4994344;28;20042;-75
2022/08/24 11:25:31;;;;;;;4.43;3.72;;;;;;;25.19;52.96;101071.66;4994571;28;20030;-75
2022/08/24 11:28:20;;;;;;;4.63;3.60;;;;;;;25.30;52.31;101070.63;4993925;28;20030;-75
2022/08/24 11:30:45;;;;;;;6.63;3.35;;;;;;;25.29;52.46;101062.69;5033026;28;20029;-75
2022/08/24 11:33:33;;;;;;;3.67;3.33;;;;;;;25.22;52.80;101068.41;5055451;28;20036;-74
2022/08/24 11:35:59;;;;;;;5.03;3.20;;;;;;;25.23;52.66;101061.84;5054907;28;20382;-73
2022/08/24 11:38:30;;;;;;;3.85;3.10;;;;;;;25.25;52.63;101062.41;5020819;28;20021;-72
2022/08/24 11:41:02;;;;;;;3.10;2.80;;;;;;;25.25;52.33;101056.06;5038264;28;20052;-72
2022/08/24 11:43:43;;;;;;;3.55;3.25;;;;;;;25.24;52.40;101062.66;5037085;28;20064;-72
2022/08/24 11:46:11;;;;;;;4.03;3.17;;;;;;;25.24;52.22;101077.16;5054519;28;20044;-71
2022/08/24 11:49:01;;;;;;;6.53;3.03;;;;;;;25.31;52.56;101074.19;5054549;28;20045;-72
2022/08/24 11:51:33;;;;;;;3.70;3.25;;;;;;;25.34;52.36;101084.59;5054467;28;20344;-71